Pomona, Washington
Current Conditions -  °F | °C
As of 10:53 AM on Friday 28 Nov 2014 (Local Time) from KYKM Reporting Station
Broken Clouds Broken Clouds  
Wind Chill: 62°   Ceiling: 9000
Heat Index: 62°   Visibility: 10mi
Dew Point: 45°   Wind: 24mph
Humidity: 53%   Direction: 210°SSW
Pressure: 29.46"   Gusts: 39mph
Location:  46.5979°N, 120.534°W
Report Text: KYKM 281853Z 21021G34KT 10SM SCT060 BKN090 17/07 A2946 RMK AO2 PK WND 22034/1850 SLP972 T01670072
Loading
Personal Weather Stations






























Interactive Weather Map New forecast layout! Learn more

10-Day Weather Forecast

Advertisements
Track Severe Weather on mobile